sensor_id;sensor_type;location;lat;lon;timestamp;pressure;altitude;pressure_sealevel;temperature;humidity
72975;BME280;61166;54.228;37.632;2023-04-05T00:01:32;99396.66;;;4.52;nan
72975;BME280;61166;54.228;37.632;2023-04-05T00:06:27;99383.19;;;4.79;nan
72975;BME280;61166;54.228;37.632;2023-04-05T00:09:00;99384.19;;;4.78;nan
72975;BME280;61166;54.228;37.632;2023-04-05T00:11:28;99386.06;;;4.92;nan
72975;BME280;61166;54.228;37.632;2023-04-05T00:13:58;99386.94;;;4.77;nan
72975;BME280;61166;54.228;37.632;2023-04-05T00:16:29;99390.84;;;4.81;nan
72975;BME280;61166;54.228;37.632;2023-04-05T00:18:56;99378.28;;;4.84;nan
72975;BME280;61166;54.228;37.632;2023-04-05T00:21:23;99379.53;;;4.96;nan
72975;BME280;61166;54.228;37.632;2023-04-05T00:23:52;99381.69;;;4.93;nan
72975;BME280;61166;54.228;37.632;2023-04-05T00:26:19;99381.25;;;4.73;nan
72975;BME280;61166;54.228;37.632;2023-04-05T00:28:47;99384.25;;;4.62;nan
72975;BME280;61166;54.228;37.632;2023-04-05T00:31:14;99382.06;;;4.35;nan
72975;BME280;61166;54.228;37.632;2023-04-05T00:33:41;99390.84;;;4.34;nan
72975;BME280;61166;54.228;37.632;2023-04-05T00:36:11;99386.31;;;4.11;nan
72975;BME280;61166;54.228;37.632;2023-04-05T00:38:39;99389.28;;;4.00;nan
72975;BME280;61166;54.228;37.632;2023-04-05T00:41:06;99392.34;;;4.12;nan
72975;BME280;61166;54.228;37.632;2023-04-05T00:43:33;99415.22;;;4.49;nan
72975;BME280;61166;54.228;37.632;2023-04-05T00:46:00;99383.03;;;4.81;nan
72975;BME280;61166;54.228;37.632;2023-04-05T00:48:28;99386.66;;;5.11;nan
72975;BME280;61166;54.228;37.632;2023-04-05T00:50:56;99387.75;;;5.16;nan
72975;BME280;61166;54.228;37.632;2023-04-05T00:53:23;99384.59;;;5.21;nan
72975;BME280;61166;54.228;37.632;2023-04-05T00:55:50;99383.09;;;5.26;nan
72975;BME280;61166;54.228;37.632;2023-04-05T00:58:17;99383.22;;;5.33;nan
72975;BME280;61166;54.228;37.632;2023-04-05T01:01:12;99391.00;;;5.41;nan
72975;BME280;61166;54.228;37.632;2023-04-05T01:03:46;99392.81;;;5.41;nan
72975;BME280;61166;54.228;37.632;2023-04-05T01:09:17;99392.16;;;5.16;nan
72975;BME280;61166;54.228;37.632;2023-04-05T01:11:47;99396.81;;;4.97;nan
72975;BME280;61166;54.228;37.632;2023-04-05T01:14:15;99405.97;;;4.85;nan
72975;BME280;61166;54.228;37.632;2023-04-05T01:16:41;99401.81;;;4.68;nan
72975;BME280;61166;54.228;37.632;2023-04-05T01:19:08;99403.34;;;4.54;nan
72975;BME280;61166;54.228;37.632;2023-04-05T01:27:03;99409.13;;;4.64;nan
72975;BME280;61166;54.228;37.632;2023-04-05T01:35:17;99403.53;;;4.84;nan
72975;BME280;61166;54.228;37.632;2023-04-05T01:37:52;99400.16;;;4.75;nan
72975;BME280;61166;54.228;37.632;2023-04-05T01:40:21;99402.84;;;4.59;nan
72975;BME280;61166;54.228;37.632;2023-04-05T01:42:48;99398.59;;;4.58;nan
72975;BME280;61166;54.228;37.632;2023-04-05T01:45:15;99401.03;;;4.59;nan
72975;BME280;61166;54.228;37.632;2023-04-05T01:47:41;99393.72;;;4.55;nan
72975;BME280;61166;54.228;37.632;2023-04-05T01:50:08;99402.19;;;4.57;nan
72975;BME280;61166;54.228;37.632;2023-04-05T01:52:35;99406.75;;;4.55;nan
72975;BME280;61166;54.228;37.632;2023-04-05T01:55:02;99398.97;;;4.39;nan
72975;BME280;61166;54.228;37.632;2023-04-05T01:57:28;99406.47;;;4.34;nan
72975;BME280;61166;54.228;37.632;2023-04-05T01:59:55;99408.72;;;4.53;nan
72975;BME280;61166;54.228;37.632;2023-04-05T02:02:21;99407.63;;;4.78;nan
72975;BME280;61166;54.228;37.632;2023-04-05T02:04:48;99399.63;;;4.88;nan
72975;BME280;61166;54.228;37.632;2023-04-05T02:07:15;99406.66;;;4.79;nan
72975;BME280;61166;54.228;37.632;2023-04-05T02:09:43;99406.34;;;4.74;nan
72975;BME280;61166;54.228;37.632;2023-04-05T02:12:10;99408.72;;;4.45;nan
72975;BME280;61166;54.228;37.632;2023-04-05T02:14:37;99408.06;;;4.43;nan
72975;BME280;61166;54.228;37.632;2023-04-05T02:17:03;99407.75;;;4.46;nan
72975;BME280;61166;54.228;37.632;2023-04-05T02:19:30;99411.34;;;4.28;nan
72975;BME280;61166;54.228;37.632;2023-04-05T02:21:57;99406.16;;;4.28;nan
72975;BME280;61166;54.228;37.632;2023-04-05T02:24:23;99407.78;;;4.21;nan
72975;BME280;61166;54.228;37.632;2023-04-05T02:26:50;99414.94;;;4.36;nan
72975;BME280;61166;54.228;37.632;2023-04-05T02:29:16;99416.84;;;4.50;nan
72975;BME280;61166;54.228;37.632;2023-04-05T02:31:43;99419.94;;;4.45;nan
72975;BME280;61166;54.228;37.632;2023-04-05T02:34:09;99412.63;;;4.49;nan
72975;BME280;61166;54.228;37.632;2023-04-05T02:36:36;99416.22;;;4.40;nan
72975;BME280;61166;54.228;37.632;2023-04-05T02:39:02;99426.00;;;4.29;nan
72975;BME280;61166;54.228;37.632;2023-04-05T02:41:29;99418.38;;;4.12;nan
72975;BME280;61166;54.228;37.632;2023-04-05T02:43:55;99427.34;;;4.01;nan
72975;BME280;61166;54.228;37.632;2023-04-05T02:46:22;99434.81;;;3.96;nan
72975;BME280;61166;54.228;37.632;2023-04-05T02:48:49;99440.00;;;3.80;nan
72975;BME280;61166;54.228;37.632;2023-04-05T02:51:15;99440.69;;;3.90;nan
72975;BME280;61166;54.228;37.632;2023-04-05T02:53:42;99437.91;;;3.91;nan
72975;BME280;61166;54.228;37.632;2023-04-05T02:56:08;99438.03;;;4.06;nan
72975;BME280;61166;54.228;37.632;2023-04-05T02:58:35;99439.34;;;4.10;nan
72975;BME280;61166;54.228;37.632;2023-04-05T03:01:01;99436.75;;;4.26;nan
72975;BME280;61166;54.228;37.632;2023-04-05T03:03:28;99439.28;;;4.59;nan
72975;BME280;61166;54.228;37.632;2023-04-05T03:06:00;99437.59;;;4.82;nan
72975;BME280;61166;54.228;37.632;2023-04-05T03:08:27;99440.47;;;4.95;nan
72975;BME280;61166;54.228;37.632;2023-04-05T03:10:53;99436.50;;;5.08;nan
72975;BME280;61166;54.228;37.632;2023-04-05T03:13:20;99440.38;;;5.20;nan
72975;BME280;61166;54.228;37.632;2023-04-05T03:15:52;99436.06;;;5.27;nan
72975;BME280;61166;54.228;37.632;2023-04-05T03:18:19;99435.38;;;5.33;nan
72975;BME280;61166;54.228;37.632;2023-04-05T03:20:46;99443.69;;;5.37;nan
72975;BME280;61166;54.228;37.632;2023-04-05T03:23:13;99440.53;;;5.49;nan
72975;BME280;61166;54.228;37.632;2023-04-05T03:25:39;99448.59;;;5.62;nan
72975;BME280;61166;54.228;37.632;2023-04-05T03:28:06;99443.38;;;5.62;nan
72975;BME280;61166;54.228;37.632;2023-04-05T03:30:33;99443.03;;;5.66;nan
72975;BME280;61166;54.228;37.632;2023-04-05T03:33:00;99446.47;;;5.66;nan
72975;BME280;61166;54.228;37.632;2023-04-05T03:35:28;99447.31;;;5.58;nan
72975;BME280;61166;54.228;37.632;2023-04-05T03:37:55;99441.13;;;5.59;nan
72975;BME280;61166;54.228;37.632;2023-04-05T03:40:23;99441.75;;;5.61;nan
72975;BME280;61166;54.228;37.632;2023-04-05T03:42:50;99447.78;;;5.62;nan
72975;BME280;61166;54.228;37.632;2023-04-05T03:45:17;99447.38;;;5.73;nan
72975;BME280;61166;54.228;37.632;2023-04-05T03:47:49;99443.38;;;5.62;nan
72975;BME280;61166;54.228;37.632;2023-04-05T03:50:16;99441.00;;;5.76;nan
72975;BME280;61166;54.228;37.632;2023-04-05T03:52:42;99436.88;;;6.04;nan
72975;BME280;61166;54.228;37.632;2023-04-05T03:55:09;99444.06;;;6.40;nan
72975;BME280;61166;54.228;37.632;2023-04-05T03:57:36;99447.91;;;6.81;nan
72975;BME280;61166;54.228;37.632;2023-04-05T04:00:03;99440.09;;;7.53;nan
72975;BME280;61166;54.228;37.632;2023-04-05T04:02:29;99446.72;;;7.92;nan
72975;BME280;61166;54.228;37.632;2023-04-05T04:04:56;99445.84;;;8.06;nan
72975;BME280;61166;54.228;37.632;2023-04-05T04:07:22;99443.94;;;8.43;nan
72975;BME280;61166;54.228;37.632;2023-04-05T04:09:49;99454.75;;;8.33;nan
72975;BME280;61166;54.228;37.632;2023-04-05T04:12:16;99449.69;;;8.10;nan
72975;BME280;61166;54.228;37.632;2023-04-05T04:14:42;99445.59;;;7.80;nan
72975;BME280;61166;54.228;37.632;2023-04-05T04:17:09;99443.59;;;7.60;nan
72975;BME280;61166;54.228;37.632;2023-04-05T04:19:36;99441.22;;;7.44;nan
72975;BME280;61166;54.228;37.632;2023-04-05T04:22:02;99444.09;;;7.49;nan
72975;BME280;61166;54.228;37.632;2023-04-05T04:24:29;99437.50;;;7.75;nan
72975;BME280;61166;54.228;37.632;2023-04-05T04:26:55;99442.66;;;7.89;nan
72975;BME280;61166;54.228;37.632;2023-04-05T04:29:21;99440.00;;;8.11;nan
72975;BME280;61166;54.228;37.632;2023-04-05T04:31:48;99447.28;;;8.58;nan
72975;BME280;61166;54.228;37.632;2023-04-05T04:34:15;99457.59;;;9.01;nan
72975;BME280;61166;54.228;37.632;2023-04-05T04:36:41;99443.22;;;9.44;nan
72975;BME280;61166;54.228;37.632;2023-04-05T04:39:08;99461.53;;;9.31;nan
72975;BME280;61166;54.228;37.632;2023-04-05T04:41:35;99457.59;;;9.01;nan
72975;BME280;61166;54.228;37.632;2023-04-05T04:44:02;99458.19;;;8.62;nan
72975;BME280;61166;54.228;37.632;2023-04-05T04:46:31;99467.50;;;8.21;nan
72975;BME280;61166;54.228;37.632;2023-04-05T04:48:58;99457.81;;;7.94;nan
72975;BME280;61166;54.228;37.632;2023-04-05T04:51:25;99471.22;;;7.84;nan
72975;BME280;61166;54.228;37.632;2023-04-05T04:53:51;99467.28;;;7.74;nan
72975;BME280;61166;54.228;37.632;2023-04-05T04:56:18;99465.91;;;7.78;nan
72975;BME280;61166;54.228;37.632;2023-04-05T04:58:44;99461.25;;;7.73;nan
72975;BME280;61166;54.228;37.632;2023-04-05T05:01:11;99464.56;;;7.82;nan
72975;BME280;61166;54.228;37.632;2023-04-05T05:03:38;99450.97;;;7.93;nan
72975;BME280;61166;54.228;37.632;2023-04-05T05:06:05;99462.66;;;8.40;nan
72975;BME280;61166;54.228;37.632;2023-04-05T05:08:31;99462.84;;;9.01;nan
72975;BME280;61166;54.228;37.632;2023-04-05T05:10:58;99454.19;;;9.61;nan
72975;BME280;61166;54.228;37.632;2023-04-05T05:13:25;99460.69;;;9.91;nan
72975;BME280;61166;54.228;37.632;2023-04-05T05:15:52;99460.09;;;10.09;nan
72975;BME280;61166;54.228;37.632;2023-04-05T05:18:18;99456.16;;;10.98;nan
72975;BME280;61166;54.228;37.632;2023-04-05T05:20:49;99448.91;;;11.76;nan
72975;BME280;61166;54.228;37.632;2023-04-05T05:23:15;99463.50;;;12.60;nan
72975;BME280;61166;54.228;37.632;2023-04-05T05:25:42;99457.19;;;13.22;nan
72975;BME280;61166;54.228;37.632;2023-04-05T05:28:08;99452.63;;;14.01;nan
72975;BME280;61166;54.228;37.632;2023-04-05T05:30:35;99456.25;;;14.76;nan
72975;BME280;61166;54.228;37.632;2023-04-05T05:33:03;99455.16;;;15.52;nan
72975;BME280;61166;54.228;37.632;2023-04-05T05:35:29;99451.03;;;15.73;nan
72975;BME280;61166;54.228;37.632;2023-04-05T05:37:56;99453.44;;;16.03;nan
72975;BME280;61166;54.228;37.632;2023-04-05T05:40:22;99459.09;;;16.62;nan
72975;BME280;61166;54.228;37.632;2023-04-05T05:42:49;99465.00;;;17.25;nan
72975;BME280;61166;54.228;37.632;2023-04-05T05:45:15;99462.50;;;16.96;nan
72975;BME280;61166;54.228;37.632;2023-04-05T05:47:42;99455.63;;;17.44;nan
72975;BME280;61166;54.228;37.632;2023-04-05T05:50:11;99455.03;;;17.86;nan
72975;BME280;61166;54.228;37.632;2023-04-05T05:52:37;99449.91;;;18.11;nan
72975;BME280;61166;54.228;37.632;2023-04-05T05:55:04;99450.53;;;17.91;nan
72975;BME280;61166;54.228;37.632;2023-04-05T05:57:31;99464.03;;;17.58;nan
72975;BME280;61166;54.228;37.632;2023-04-05T05:59:57;99469.47;;;17.46;nan
72975;BME280;61166;54.228;37.632;2023-04-05T06:02:24;99465.28;;;17.72;nan
72975;BME280;61166;54.228;37.632;2023-04-05T06:04:50;99461.19;;;17.91;nan
72975;BME280;61166;54.228;37.632;2023-04-05T06:07:17;99462.50;;;18.21;nan
72975;BME280;61166;54.228;37.632;2023-04-05T06:09:43;99498.72;;;18.22;nan
72975;BME280;61166;54.228;37.632;2023-04-05T06:12:10;99464.56;;;17.81;nan
72975;BME280;61166;54.228;37.632;2023-04-05T06:14:36;99465.38;;;18.51;nan
72975;BME280;61166;54.228;37.632;2023-04-05T06:17:03;99463.00;;;19.54;nan
72975;BME280;61166;54.228;37.632;2023-04-05T06:19:29;99465.38;;;20.93;nan
72975;BME280;61166;54.228;37.632;2023-04-05T06:21:56;99466.75;;;21.55;nan
72975;BME280;61166;54.228;37.632;2023-04-05T06:24:22;99468.13;;;21.91;nan
72975;BME280;61166;54.228;37.632;2023-04-05T06:26:49;99471.03;;;21.51;nan
72975;BME280;61166;54.228;37.632;2023-04-05T06:29:16;99473.88;;;21.69;nan
72975;BME280;61166;54.228;37.632;2023-04-05T06:31:43;99470.91;;;21.76;nan
72975;BME280;61166;54.228;37.632;2023-04-05T06:34:09;99466.28;;;21.87;nan
72975;BME280;61166;54.228;37.632;2023-04-05T06:36:36;99457.38;;;22.59;nan
72975;BME280;61166;54.228;37.632;2023-04-05T06:39:02;99451.59;;;23.43;nan
72975;BME280;61166;54.228;37.632;2023-04-05T06:41:29;99455.03;;;24.18;nan
72975;BME280;61166;54.228;37.632;2023-04-05T06:43:55;99470.53;;;24.08;nan
72975;BME280;61166;54.228;37.632;2023-04-05T06:46:22;99457.53;;;23.96;nan
72975;BME280;61166;54.228;37.632;2023-04-05T06:48:50;99461.13;;;24.56;nan
72975;BME280;61166;54.228;37.632;2023-04-05T06:51:17;99462.53;;;24.02;nan
72975;BME280;61166;54.228;37.632;2023-04-05T06:53:44;99464.59;;;23.73;nan
72975;BME280;61166;54.228;37.632;2023-04-05T06:56:13;99462.75;;;23.50;nan
72975;BME280;61166;54.228;37.632;2023-04-05T06:58:39;99463.97;;;22.43;nan
72975;BME280;61166;54.228;37.632;2023-04-05T07:01:06;99462.94;;;22.39;nan
72975;BME280;61166;54.228;37.632;2023-04-05T07:03:33;99461.56;;;23.18;nan
72975;BME280;61166;54.228;37.632;2023-04-05T07:06:00;99462.66;;;22.93;nan
72975;BME280;61166;54.228;37.632;2023-04-05T07:08:27;99461.00;;;22.45;nan
72975;BME280;61166;54.228;37.632;2023-04-05T07:10:54;99460.34;;;22.87;nan
72975;BME280;61166;54.228;37.632;2023-04-05T07:13:22;99456.41;;;23.22;nan
72975;BME280;61166;54.228;37.632;2023-04-05T07:15:50;99455.75;;;23.54;nan
72975;BME280;61166;54.228;37.632;2023-04-05T07:18:18;99455.03;;;22.53;nan
72975;BME280;61166;54.228;37.632;2023-04-05T07:20:47;99452.22;;;22.92;nan
72975;BME280;61166;54.228;37.632;2023-04-05T07:23:14;99444.03;;;23.45;nan
72975;BME280;61166;54.228;37.632;2023-04-05T07:25:41;99451.31;;;23.44;nan
72975;BME280;61166;54.228;37.632;2023-04-05T07:28:07;99446.88;;;23.91;nan
72975;BME280;61166;54.228;37.632;2023-04-05T07:30:36;99450.28;;;23.78;nan
72975;BME280;61166;54.228;37.632;2023-04-05T07:33:03;99445.63;;;23.46;nan
72975;BME280;61166;54.228;37.632;2023-04-05T07:35:30;99439.47;;;23.45;nan
72975;BME280;61166;54.228;37.632;2023-04-05T07:37:56;99447.16;;;24.41;nan
72975;BME280;61166;54.228;37.632;2023-04-05T07:40:23;99450.00;;;24.30;nan
72975;BME280;61166;54.228;37.632;2023-04-05T07:42:49;99434.00;;;24.39;nan
72975;BME280;61166;54.228;37.632;2023-04-05T07:45:18;99446.50;;;24.62;nan
72975;BME280;61166;54.228;37.632;2023-04-05T07:47:46;99428.91;;;23.54;nan
72975;BME280;61166;54.228;37.632;2023-04-05T07:50:14;99433.16;;;22.12;nan
72975;BME280;61166;54.228;37.632;2023-04-05T07:52:41;99439.50;;;20.78;nan
72975;BME280;61166;54.228;37.632;2023-04-05T07:55:08;99445.19;;;20.05;nan
72975;BME280;61166;54.228;37.632;2023-04-05T07:57:35;99447.97;;;19.38;nan
72975;BME280;61166;54.228;37.632;2023-04-05T08:00:03;99442.03;;;19.16;nan
72975;BME280;61166;54.228;37.632;2023-04-05T08:02:31;99442.91;;;19.36;nan
72975;BME280;61166;54.228;37.632;2023-04-05T08:04:57;99467.56;;;19.59;nan
72975;BME280;61166;54.228;37.632;2023-04-05T08:07:24;99471.34;;;19.93;nan
72975;BME280;61166;54.228;37.632;2023-04-05T08:09:50;99455.31;;;20.34;nan
72975;BME280;61166;54.228;37.632;2023-04-05T08:12:17;99470.50;;;20.79;nan
72975;BME280;61166;54.228;37.632;2023-04-05T08:14:43;99452.28;;;20.91;nan
72975;BME280;61166;54.228;37.632;2023-04-05T08:17:11;99458.41;;;20.97;nan
72975;BME280;61166;54.228;37.632;2023-04-05T08:19:38;99442.72;;;21.39;nan
72975;BME280;61166;54.228;37.632;2023-04-05T08:22:06;99452.06;;;21.91;nan
72975;BME280;61166;54.228;37.632;2023-04-05T08:24:33;99440.47;;;21.96;nan
72975;BME280;61166;54.228;37.632;2023-04-05T08:26:59;99443.34;;;22.10;nan
72975;BME280;61166;54.228;37.632;2023-04-05T08:29:26;99450.34;;;22.00;nan
72975;BME280;61166;54.228;37.632;2023-04-05T08:31:55;99439.59;;;21.71;nan
72975;BME280;61166;54.228;37.632;2023-04-05T08:34:22;99448.41;;;22.45;nan
72975;BME280;61166;54.228;37.632;2023-04-05T08:36:56;99439.56;;;22.45;nan
72975;BME280;61166;54.228;37.632;2023-04-05T08:39:23;99451.03;;;22.21;nan
72975;BME280;61166;54.228;37.632;2023-04-05T08:42:22;99448.75;;;22.04;nan
72975;BME280;61166;54.228;37.632;2023-04-05T08:44:46;99459.59;;;21.84;nan
72975;BME280;61166;54.228;37.632;2023-04-05T08:47:17;99451.09;;;21.77;nan
72975;BME280;61166;54.228;37.632;2023-04-05T08:49:45;99447.66;;;22.39;nan
72975;BME280;61166;54.228;37.632;2023-04-05T08:52:13;99432.38;;;22.64;nan
72975;BME280;61166;54.228;37.632;2023-04-05T08:54:40;99440.66;;;22.96;nan
72975;BME280;61166;54.228;37.632;2023-04-05T08:57:07;99448.22;;;22.60;nan
72975;BME280;61166;54.228;37.632;2023-04-05T08:59:37;99443.63;;;22.66;nan
72975;BME280;61166;54.228;37.632;2023-04-05T09:02:10;99438.69;;;23.45;nan
72975;BME280;61166;54.228;37.632;2023-04-05T09:04:42;99435.00;;;24.43;nan
72975;BME280;61166;54.228;37.632;2023-04-05T09:07:10;99437.59;;;24.48;nan
72975;BME280;61166;54.228;37.632;2023-04-05T09:09:46;99435.34;;;23.53;nan
72975;BME280;61166;54.228;37.632;2023-04-05T09:12:14;99430.59;;;24.01;nan
72975;BME280;61166;54.228;37.632;2023-04-05T09:14:43;99443.22;;;24.00;nan
72975;BME280;61166;54.228;37.632;2023-04-05T09:17:09;99436.69;;;24.39;nan
72975;BME280;61166;54.228;37.632;2023-04-05T09:19:38;99438.56;;;24.39;nan
72975;BME280;61166;54.228;37.632;2023-04-05T09:22:06;99439.03;;;25.00;nan
72975;BME280;61166;54.228;37.632;2023-04-05T09:24:34;99429.97;;;25.10;nan
72975;BME280;61166;54.228;37.632;2023-04-05T09:27:17;99429.88;;;23.95;nan
72975;BME280;61166;54.228;37.632;2023-04-05T09:29:45;99433.38;;;23.39;nan
72975;BME280;61166;54.228;37.632;2023-04-05T09:32:14;99437.72;;;21.28;nan
72975;BME280;61166;54.228;37.632;2023-04-05T09:34:42;99446.50;;;19.93;nan
72975;BME280;61166;54.228;37.632;2023-04-05T09:37:20;99436.75;;;19.26;nan
72975;BME280;61166;54.228;37.632;2023-04-05T09:39:48;99434.50;;;20.00;nan
72975;BME280;61166;54.228;37.632;2023-04-05T09:42:17;99439.56;;;20.48;nan
72975;BME280;61166;54.228;37.632;2023-04-05T09:47:27;99436.09;;;20.22;nan
72975;BME280;61166;54.228;37.632;2023-04-05T09:49:54;99429.44;;;20.14;nan
72975;BME280;61166;54.228;37.632;2023-04-05T09:54:53;99429.00;;;18.62;nan
72975;BME280;61166;54.228;37.632;2023-04-05T09:57:19;99424.81;;;18.02;nan
72975;BME280;61166;54.228;37.632;2023-04-05T09:59:46;99445.03;;;17.71;nan
72975;BME280;61166;54.228;37.632;2023-04-05T10:02:14;99449.84;;;17.25;nan
72975;BME280;61166;54.228;37.632;2023-04-05T10:04:42;99425.13;;;17.03;nan
72975;BME280;61166;54.228;37.632;2023-04-05T10:07:11;99438.91;;;17.00;nan
72975;BME280;61166;54.228;37.632;2023-04-05T10:09:40;99440.31;;;16.86;nan
72975;BME280;61166;54.228;37.632;2023-04-05T10:12:08;99428.03;;;17.01;nan
72975;BME280;61166;54.228;37.632;2023-04-05T10:14:35;99437.81;;;17.17;nan
72975;BME280;61166;54.228;37.632;2023-04-05T10:17:19;99443.78;;;17.08;nan
72975;BME280;61166;54.228;37.632;2023-04-05T10:20:08;99420.81;;;16.97;nan
72975;BME280;61166;54.228;37.632;2023-04-05T10:27:47;99422.41;;;17.20;nan
72975;BME280;61166;54.228;37.632;2023-04-05T10:30:15;99445.34;;;17.04;nan
72975;BME280;61166;54.228;37.632;2023-04-05T10:33:09;99426.81;;;17.09;nan
72975;BME280;61166;54.228;37.632;2023-04-05T10:36:08;99436.66;;;17.35;nan
72975;BME280;61166;54.228;37.632;2023-04-05T10:38:52;99435.97;;;17.45;nan
72975;BME280;61166;54.228;37.632;2023-04-05T10:41:25;99429.94;;;17.28;nan
72975;BME280;61166;54.228;37.632;2023-04-05T10:43:54;99428.28;;;17.00;nan
72975;BME280;61166;54.228;37.632;2023-04-05T10:46:23;99413.59;;;16.70;nan
72975;BME280;61166;54.228;37.632;2023-04-05T10:51:28;99422.28;;;16.49;nan
72975;BME280;61166;54.228;37.632;2023-04-05T10:53:55;99422.34;;;16.54;nan
72975;BME280;61166;54.228;37.632;2023-04-05T10:56:22;99434.34;;;16.57;nan
72975;BME280;61166;54.228;37.632;2023-04-05T10:58:50;99413.75;;;16.47;nan
72975;BME280;61166;54.228;37.632;2023-04-05T11:01:19;99427.25;;;16.62;nan
72975;BME280;61166;54.228;37.632;2023-04-05T11:03:51;99419.63;;;16.88;nan
72975;BME280;61166;54.228;37.632;2023-04-05T11:08:59;99410.22;;;16.80;nan
72975;BME280;61166;54.228;37.632;2023-04-05T11:11:42;99420.88;;;16.63;nan
72975;BME280;61166;54.228;37.632;2023-04-05T11:14:35;99415.53;;;16.25;nan
72975;BME280;61166;54.228;37.632;2023-04-05T11:17:23;99429.72;;;16.13;nan
72975;BME280;61166;54.228;37.632;2023-04-05T11:20:05;99414.66;;;16.19;nan
72975;BME280;61166;54.228;37.632;2023-04-05T11:22:31;99409.91;;;16.38;nan
72975;BME280;61166;54.228;37.632;2023-04-05T11:25:00;99412.53;;;16.55;nan
72975;BME280;61166;54.228;37.632;2023-04-05T11:27:34;99409.50;;;16.84;nan
72975;BME280;61166;54.228;37.632;2023-04-05T11:30:03;99408.13;;;17.04;nan
72975;BME280;61166;54.228;37.632;2023-04-05T11:32:41;99414.38;;;17.14;nan
72975;BME280;61166;54.228;37.632;2023-04-05T11:35:18;99415.19;;;17.42;nan
72975;BME280;61166;54.228;37.632;2023-04-05T11:40:36;99410.78;;;17.26;nan
72975;BME280;61166;54.228;37.632;2023-04-05T11:43:08;99413.63;;;17.19;nan
72975;BME280;61166;54.228;37.632;2023-04-05T11:45:37;99409.56;;;17.11;nan
72975;BME280;61166;54.228;37.632;2023-04-05T11:48:05;99412.66;;;17.25;nan
72975;BME280;61166;54.228;37.632;2023-04-05T11:50:33;99412.69;;;16.87;nan
72975;BME280;61166;54.228;37.632;2023-04-05T11:55:33;99411.09;;;16.47;nan
72975;BME280;61166;54.228;37.632;2023-04-05T11:57:59;99395.72;;;16.49;nan
72975;BME280;61166;54.228;37.632;2023-04-05T12:00:26;99403.72;;;16.32;nan
72975;BME280;61166;54.228;37.632;2023-04-05T12:02:55;99394.28;;;16.41;nan
72975;BME280;61166;54.228;37.632;2023-04-05T12:05:22;99390.28;;;16.39;nan
72975;BME280;61166;54.228;37.632;2023-04-05T12:07:52;99397.94;;;16.18;nan
72975;BME280;61166;54.228;37.632;2023-04-05T12:10:18;99393.78;;;16.06;nan
72975;BME280;61166;54.228;37.632;2023-04-05T12:12:45;99392.25;;;16.10;nan
72975;BME280;61166;54.228;37.632;2023-04-05T12:15:13;99395.22;;;16.13;nan
72975;BME280;61166;54.228;37.632;2023-04-05T12:17:48;99395.53;;;16.00;nan
72975;BME280;61166;54.228;37.632;2023-04-05T12:20:18;99397.06;;;15.96;nan
72975;BME280;61166;54.228;37.632;2023-04-05T12:22:46;99407.94;;;16.11;nan
72975;BME280;61166;54.228;37.632;2023-04-05T12:25:14;99390.91;;;16.29;nan
72975;BME280;61166;54.228;37.632;2023-04-05T12:27:42;99385.28;;;16.26;nan
72975;BME280;61166;54.228;37.632;2023-04-05T12:30:10;99381.47;;;16.16;nan
72975;BME280;61166;54.228;37.632;2023-04-05T12:32:55;99381.84;;;15.75;nan
72975;BME280;61166;54.228;37.632;2023-04-05T12:35:28;99393.09;;;15.65;nan
72975;BME280;61166;54.228;37.632;2023-04-05T12:37:57;99380.81;;;15.76;nan
72975;BME280;61166;54.228;37.632;2023-04-05T12:40:24;99392.16;;;15.88;nan
72975;BME280;61166;54.228;37.632;2023-04-05T12:42:50;99387.41;;;15.90;nan
72975;BME280;61166;54.228;37.632;2023-04-05T12:45:17;99382.03;;;15.85;nan
72975;BME280;61166;54.228;37.632;2023-04-05T12:50:16;99388.13;;;15.85;nan
72975;BME280;61166;54.228;37.632;2023-04-05T12:55:22;99391.34;;;15.88;nan
72975;BME280;61166;54.228;37.632;2023-04-05T12:57:54;99398.19;;;16.00;nan
72975;BME280;61166;54.228;37.632;2023-04-05T13:00:21;99415.72;;;16.01;nan
72975;BME280;61166;54.228;37.632;2023-04-05T13:02:52;99399.81;;;16.01;nan
72975;BME280;61166;54.228;37.632;2023-04-05T13:05:24;99390.16;;;15.95;nan
72975;BME280;61166;54.228;37.632;2023-04-05T13:07:51;99392.31;;;15.98;nan
72975;BME280;61166;54.228;37.632;2023-04-05T13:10:19;99392.41;;;16.03;nan
72975;BME280;61166;54.228;37.632;2023-04-05T13:12:47;99417.50;;;16.12;nan
72975;BME280;61166;54.228;37.632;2023-04-05T13:15:15;99390.47;;;16.15;nan
72975;BME280;61166;54.228;37.632;2023-04-05T13:17:42;99389.47;;;16.22;nan
72975;BME280;61166;54.228;37.632;2023-04-05T13:20:09;99406.69;;;16.36;nan
72975;BME280;61166;54.228;37.632;2023-04-05T13:22:36;99392.03;;;16.50;nan
72975;BME280;61166;54.228;37.632;2023-04-05T13:25:04;99393.47;;;16.58;nan
72975;BME280;61166;54.228;37.632;2023-04-05T13:27:31;99391.28;;;16.71;nan
72975;BME280;61166;54.228;37.632;2023-04-05T13:29:57;99395.22;;;16.69;nan
72975;BME280;61166;54.228;37.632;2023-04-05T13:32:24;99401.66;;;16.56;nan
72975;BME280;61166;54.228;37.632;2023-04-05T13:34:50;99391.88;;;16.78;nan
72975;BME280;61166;54.228;37.632;2023-04-05T13:37:17;99392.94;;;16.77;nan
72975;BME280;61166;54.228;37.632;2023-04-05T13:39:43;99391.03;;;16.73;nan
72975;BME280;61166;54.228;37.632;2023-04-05T13:42:10;99378.84;;;16.99;nan
72975;BME280;61166;54.228;37.632;2023-04-05T13:44:36;99389.03;;;16.85;nan
72975;BME280;61166;54.228;37.632;2023-04-05T13:47:03;99398.13;;;16.89;nan
72975;BME280;61166;54.228;37.632;2023-04-05T13:49:30;99393.44;;;16.74;nan
72975;BME280;61166;54.228;37.632;2023-04-05T13:51:56;99397.34;;;16.67;nan
72975;BME280;61166;54.228;37.632;2023-04-05T13:54:23;99410.94;;;16.37;nan
72975;BME280;61166;54.228;37.632;2023-04-05T13:56:49;99396.06;;;16.36;nan
72975;BME280;61166;54.228;37.632;2023-04-05T13:59:16;99411.09;;;16.30;nan
72975;BME280;61166;54.228;37.632;2023-04-05T14:01:42;99397.72;;;16.03;nan
72975;BME280;61166;54.228;37.632;2023-04-05T14:04:09;99399.81;;;16.01;nan